CFG47T EDDN-EIDW
Flight info
| Callsign | CFG47T |
|---|---|
| Flight time | N/A |
| Altitude | 36000 |
| Route | SULUS1C/10 SULUS L604 MAPOX DCT SPY DCT RAVLO Y70 OTBED L60 PENIL UL28 LELDO M145 BAGSO BAGSO3R |
| Aircraft | A339/H-SADE1E2E3GHIJ3J5M1P2RWXY/LB2D1 |
Departure
| Time | 2026-04-28 13:13 |
|---|---|
| Airport | Nuremberg Airport (EDDN) |
Arrival
| Time | N/A |
|---|---|
| Airport | Dublin Airport (EIDW) |
| Time | Latitude | Longitude | Altitude | Speed | Heading |
|---|---|---|---|---|---|
| 2026-04-28 12:59 | 49.49532 | 11.07661 | 1032 ft | 0 kts | 188° |
| 2026-04-28 13:07 | 49.49533 | 11.07661 | 1032 ft | 1 kts | 188° |
| 2026-04-28 13:07 | 49.49553 | 11.07666 | 1030 ft | 3 kts | 188° |
| 2026-04-28 13:08 | 49.49575 | 11.07671 | 1032 ft | 3 kts | 161° |
| 2026-04-28 13:08 | 49.49593 | 11.07658 | 1031 ft | 2 kts | 116° |
| 2026-04-28 13:08 | 49.49597 | 11.07650 | 1030 ft | 0 kts | 100° |
| 2026-04-28 13:09 | 49.49595 | 11.07673 | 1030 ft | 7 kts | 98° |
| 2026-04-28 13:09 | 49.49617 | 11.07752 | 1031 ft | 9 kts | 39° |
| 2026-04-28 13:10 | 49.49681 | 11.07711 | 1028 ft | 14 kts | 296° |
| 2026-04-28 13:10 | 49.49705 | 11.07520 | 1027 ft | 21 kts | 278° |
| 2026-04-28 13:10 | 49.49728 | 11.07273 | 1028 ft | 26 kts | 278° |
| 2026-04-28 13:10 | 49.49757 | 11.06976 | 1025 ft | 30 kts | 278° |
| 2026-04-28 13:11 | 49.49788 | 11.06655 | 1023 ft | 30 kts | 278° |
| 2026-04-28 13:11 | 49.49820 | 11.06341 | 1022 ft | 28 kts | 278° |
| 2026-04-28 13:11 | 49.49839 | 11.06160 | 1022 ft | 16 kts | 279° |
| 2026-04-28 13:11 | 49.49881 | 11.05988 | 1025 ft | 18 kts | 320° |
| 2026-04-28 13:12 | 49.49988 | 11.05932 | 1032 ft | 15 kts | 2° |
| 2026-04-28 13:12 | 49.50042 | 11.06033 | 1031 ft | 13 kts | 82° |
| 2026-04-28 13:12 | 49.50026 | 11.06240 | 1029 ft | 46 kts | 99° |
| 2026-04-28 13:12 | 49.49932 | 11.07192 | 1029 ft | 130 kts | 98° |
| 2026-04-28 13:13 | 49.49763 | 11.08879 | 1151 ft | 181 kts | 99° |
| 2026-04-28 13:13 | 49.49558 | 11.10889 | 1673 ft | 199 kts | 99° |
| 2026-04-28 13:13 | 49.49342 | 11.12941 | 2824 ft | 190 kts | 97° |
| 2026-04-28 13:13 | 49.49141 | 11.14996 | 3756 ft | 202 kts | 97° |
| 2026-04-28 13:14 | 49.49049 | 11.17253 | 4354 ft | 221 kts | 82° |
| 2026-04-28 13:14 | 49.49574 | 11.19539 | 4781 ft | 241 kts | 59° |
| 2026-04-28 13:14 | 49.50680 | 11.21610 | 5252 ft | 256 kts | 45° |
| 2026-04-28 13:14 | 49.52045 | 11.23389 | 5973 ft | 258 kts | 40° |
| 2026-04-28 13:15 | 49.53507 | 11.25080 | 6646 ft | 263 kts | 38° |
| 2026-04-28 13:15 | 49.54971 | 11.26749 | 7346 ft | 267 kts | 38° |
| 2026-04-28 13:15 | 49.56473 | 11.28499 | 8026 ft | 272 kts | 38° |
| 2026-04-28 13:15 | 49.58057 | 11.30167 | 8624 ft | 279 kts | 26° |
| 2026-04-28 13:16 | 49.59956 | 11.30825 | 9330 ft | 284 kts | 0° |
| 2026-04-28 13:16 | 49.61893 | 11.30195 | 10036 ft | 288 kts | 336° |
| 2026-04-28 13:16 | 49.63667 | 11.28726 | 10520 ft | 298 kts | 329° |
| 2026-04-28 13:16 | 49.65497 | 11.26987 | 10720 ft | 318 kts | 328° |
| 2026-04-28 13:17 | 49.67452 | 11.25153 | 10970 ft | 334 kts | 329° |
| 2026-04-28 13:17 | 49.69451 | 11.23362 | 11603 ft | 337 kts | 330° |
| 2026-04-28 13:17 | 49.71509 | 11.21587 | 12314 ft | 338 kts | 330° |
| 2026-04-28 13:17 | 49.73583 | 11.19826 | 13012 ft | 339 kts | 330° |
| 2026-04-28 13:18 | 49.75637 | 11.18100 | 13723 ft | 341 kts | 330° |
| 2026-04-28 13:18 | 49.77729 | 11.16340 | 14365 ft | 342 kts | 330° |
| 2026-04-28 13:18 | 49.79832 | 11.14567 | 14915 ft | 345 kts | 330° |
| 2026-04-28 13:18 | 49.81949 | 11.12771 | 15482 ft | 348 kts | 329° |
| 2026-04-28 13:19 | 49.83944 | 11.10718 | 16053 ft | 349 kts | 321° |
| 2026-04-28 13:19 | 49.85784 | 11.08192 | 16594 ft | 353 kts | 313° |
| 2026-04-28 13:19 | 49.87461 | 11.05443 | 17142 ft | 354 kts | 312° |
| 2026-04-28 13:19 | 49.89175 | 11.02648 | 17704 ft | 357 kts | 312° |
| 2026-04-28 13:20 | 49.90883 | 10.99879 | 18265 ft | 360 kts | 312° |
| 2026-04-28 13:20 | 49.92633 | 10.97053 | 18797 ft | 362 kts | 312° |
| 2026-04-28 13:20 | 49.94393 | 10.94207 | 19285 ft | 365 kts | 312° |
| 2026-04-28 13:20 | 49.96139 | 10.91382 | 19806 ft | 367 kts | 312° |
| 2026-04-28 13:21 | 49.97913 | 10.88508 | 20276 ft | 370 kts | 312° |
| 2026-04-28 13:21 | 49.99699 | 10.85606 | 20786 ft | 372 kts | 312° |
| 2026-04-28 13:21 | 50.01503 | 10.82676 | 21301 ft | 375 kts | 312° |
| 2026-04-28 13:21 | 50.03316 | 10.79723 | 21807 ft | 378 kts | 312° |
| 2026-04-28 13:22 | 50.05119 | 10.76789 | 22327 ft | 380 kts | 312° |
| 2026-04-28 13:22 | 50.06959 | 10.73789 | 22840 ft | 382 kts | 312° |
| 2026-04-28 13:22 | 50.08798 | 10.70786 | 23361 ft | 385 kts | 312° |
| 2026-04-28 13:22 | 50.10661 | 10.67743 | 23827 ft | 388 kts | 312° |
| 2026-04-28 13:23 | 50.12531 | 10.64684 | 24263 ft | 391 kts | 312° |
| 2026-04-28 13:23 | 50.14386 | 10.61645 | 24700 ft | 393 kts | 312° |
| 2026-04-28 13:23 | 50.16284 | 10.58531 | 25129 ft | 395 kts | 312° |
| 2026-04-28 13:23 | 50.18188 | 10.55408 | 25570 ft | 397 kts | 312° |
| 2026-04-28 13:24 | 50.20103 | 10.52256 | 25996 ft | 400 kts | 311° |
| 2026-04-28 13:24 | 50.22008 | 10.49118 | 26420 ft | 402 kts | 311° |
| 2026-04-28 13:24 | 50.23951 | 10.45931 | 26824 ft | 405 kts | 312° |
| 2026-04-28 13:24 | 50.25907 | 10.42787 | 27252 ft | 407 kts | 313° |
| 2026-04-28 13:25 | 50.27895 | 10.39610 | 27673 ft | 409 kts | 313° |
| 2026-04-28 13:25 | 50.29902 | 10.36395 | 28060 ft | 412 kts | 312° |
| 2026-04-28 13:25 | 50.31905 | 10.33175 | 28174 ft | 413 kts | 312° |
| 2026-04-28 13:26 | 50.35869 | 10.26617 | 28574 ft | 414 kts | 308° |
| 2026-04-28 13:26 | 50.37669 | 10.23158 | 29017 ft | 415 kts | 309° |
| 2026-04-28 13:26 | 50.39668 | 10.19857 | 29368 ft | 419 kts | 313° |
| 2026-04-28 13:26 | 50.41714 | 10.16582 | 29730 ft | 421 kts | 312° |
| 2026-04-28 13:27 | 50.43769 | 10.13272 | 30105 ft | 423 kts | 312° |
| 2026-04-28 13:27 | 50.45801 | 10.09904 | 30446 ft | 425 kts | 311° |
| 2026-04-28 13:27 | 50.47807 | 10.06470 | 30790 ft | 427 kts | 310° |
| 2026-04-28 13:27 | 50.49789 | 10.03048 | 31121 ft | 429 kts | 310° |
| 2026-04-28 13:28 | 50.51809 | 9.99566 | 31462 ft | 431 kts | 310° |
| 2026-04-28 13:28 | 50.53843 | 9.96069 | 31807 ft | 433 kts | 310° |
| 2026-04-28 13:28 | 50.55856 | 9.92524 | 32116 ft | 435 kts | 308° |
| 2026-04-28 13:28 | 50.57793 | 9.88854 | 32420 ft | 437 kts | 307° |
| 2026-04-28 13:29 | 50.59719 | 9.85124 | 32748 ft | 439 kts | 306° |
| 2026-04-28 13:29 | 50.61655 | 9.81384 | 33001 ft | 440 kts | 307° |
| 2026-04-28 13:29 | 50.63582 | 9.77687 | 33233 ft | 442 kts | 307° |
| 2026-04-28 13:29 | 50.65544 | 9.73939 | 33437 ft | 444 kts | 307° |
| 2026-04-28 13:30 | 50.67521 | 9.70169 | 33616 ft | 446 kts | 307° |
| 2026-04-28 13:30 | 50.69507 | 9.66380 | 33804 ft | 447 kts | 307° |
| 2026-04-28 13:30 | 50.71471 | 9.62626 | 34034 ft | 447 kts | 307° |
| 2026-04-28 13:30 | 50.73450 | 9.58838 | 34259 ft | 446 kts | 307° |
| 2026-04-28 13:31 | 50.77389 | 9.51297 | 34599 ft | 447 kts | 307° |
| 2026-04-28 13:31 | 50.79376 | 9.47489 | 34768 ft | 447 kts | 307° |
| 2026-04-28 13:31 | 50.81358 | 9.43684 | 34922 ft | 448 kts | 307° |
| 2026-04-28 13:32 | 50.83342 | 9.39870 | 35115 ft | 448 kts | 307° |
| 2026-04-28 13:32 | 50.85329 | 9.36042 | 35283 ft | 449 kts | 307° |
| 2026-04-28 13:32 | 50.87282 | 9.32274 | 35466 ft | 449 kts | 307° |
| 2026-04-28 13:32 | 50.89265 | 9.28442 | 35621 ft | 450 kts | 307° |
| 2026-04-28 13:33 | 50.91251 | 9.24599 | 35795 ft | 450 kts | 307° |
| 2026-04-28 13:33 | 50.93237 | 9.20751 | 35950 ft | 450 kts | 307° |
| 2026-04-28 13:33 | 50.95225 | 9.16889 | 36153 ft | 451 kts | 307° |
| 2026-04-28 13:33 | 50.97189 | 9.13070 | 36207 ft | 451 kts | 307° |
| 2026-04-28 13:34 | 51.01158 | 9.05337 | 36215 ft | 451 kts | 308° |
| 2026-04-28 13:34 | 51.05120 | 8.97593 | 36214 ft | 451 kts | 308° |
| 2026-04-28 13:35 | 51.09084 | 8.89826 | 36215 ft | 452 kts | 308° |
| 2026-04-28 13:35 | 51.12993 | 8.82036 | 36217 ft | 452 kts | 304° |
| 2026-04-28 13:36 | 51.15799 | 8.75019 | 36221 ft | 451 kts | 300° |
| 2026-04-28 13:36 | 51.19065 | 8.66437 | 36226 ft | 452 kts | 300° |
| 2026-04-28 13:37 | 51.22339 | 8.57878 | 36225 ft | 452 kts | 300° |
| 2026-04-28 13:37 | 51.25577 | 8.49364 | 36223 ft | 451 kts | 300° |
| 2026-04-28 13:38 | 51.28835 | 8.40752 | 36224 ft | 452 kts | 300° |
| 2026-04-28 13:38 | 51.32074 | 8.32163 | 36222 ft | 452 kts | 300° |
| 2026-04-28 13:39 | 51.35309 | 8.23549 | 36225 ft | 453 kts | 300° |
| 2026-04-28 13:39 | 51.38556 | 8.14876 | 36223 ft | 453 kts | 300° |
| 2026-04-28 13:40 | 51.41776 | 8.06251 | 36227 ft | 454 kts | 300° |
| 2026-04-28 13:40 | 51.45017 | 7.97534 | 36219 ft | 453 kts | 300° |
| 2026-04-28 13:41 | 51.48231 | 7.88865 | 36230 ft | 454 kts | 300° |
| 2026-04-28 13:41 | 51.51447 | 7.80155 | 36221 ft | 454 kts | 300° |
| 2026-04-28 13:42 | 51.54670 | 7.71400 | 36210 ft | 454 kts | 300° |
| 2026-04-28 13:42 | 51.57861 | 7.62703 | 36198 ft | 455 kts | 300° |
| 2026-04-28 13:43 | 51.61081 | 7.53897 | 36203 ft | 455 kts | 300° |
| 2026-04-28 13:43 | 51.64278 | 7.45119 | 36230 ft | 455 kts | 300° |
| 2026-04-28 13:44 | 51.67500 | 7.36245 | 36233 ft | 459 kts | 300° |
| 2026-04-28 13:44 | 51.70696 | 7.27413 | 36225 ft | 460 kts | 301° |
| 2026-04-28 13:45 | 51.73917 | 7.18472 | 36226 ft | 461 kts | 301° |
| 2026-04-28 13:45 | 51.77140 | 7.09503 | 36245 ft | 462 kts | 301° |
| 2026-04-28 13:46 | 51.80360 | 7.00505 | 36246 ft | 462 kts | 301° |
| 2026-04-28 13:46 | 51.83559 | 6.91539 | 36240 ft | 463 kts | 301° |
| 2026-04-28 13:47 | 51.86784 | 6.82469 | 36244 ft | 465 kts | 301° |
| 2026-04-28 13:47 | 51.90010 | 6.73359 | 36247 ft | 466 kts | 301° |
| 2026-04-28 13:48 | 51.93214 | 6.64273 | 36251 ft | 467 kts | 301° |
| 2026-04-28 13:48 | 51.96439 | 6.55108 | 36252 ft | 467 kts | 301° |
| 2026-04-28 13:49 | 51.99647 | 6.45903 | 36250 ft | 468 kts | 300° |
| 2026-04-28 13:49 | 52.02469 | 6.36399 | 36248 ft | 471 kts | 296° |
| 2026-04-28 13:50 | 52.05252 | 6.26734 | 36249 ft | 472 kts | 297° |
| 2026-04-28 13:50 | 52.08079 | 6.17110 | 36246 ft | 473 kts | 297° |
| 2026-04-28 13:51 | 52.10927 | 6.07434 | 36243 ft | 474 kts | 297° |
| 2026-04-28 13:51 | 52.13760 | 5.97765 | 36241 ft | 476 kts | 297° |
| 2026-04-28 13:52 | 52.16594 | 5.88064 | 36242 ft | 477 kts | 297° |
| 2026-04-28 13:52 | 52.19444 | 5.78268 | 36247 ft | 478 kts | 297° |
| 2026-04-28 13:53 | 52.22286 | 5.68444 | 36252 ft | 479 kts | 297° |
| 2026-04-28 13:53 | 52.25108 | 5.58649 | 36267 ft | 479 kts | 297° |
| 2026-04-28 13:54 | 52.27945 | 5.48769 | 36268 ft | 480 kts | 297° |
| 2026-04-28 13:54 | 52.30765 | 5.38907 | 36270 ft | 481 kts | 297° |
| 2026-04-28 13:55 | 52.33601 | 5.28946 | 36270 ft | 482 kts | 297° |
| 2026-04-28 13:55 | 52.36426 | 5.18987 | 36268 ft | 483 kts | 297° |
| 2026-04-28 13:56 | 52.39234 | 5.09037 | 36269 ft | 483 kts | 297° |
| 2026-04-28 13:56 | 52.42052 | 4.99014 | 36270 ft | 484 kts | 297° |
| 2026-04-28 13:57 | 52.44852 | 4.89015 | 36268 ft | 485 kts | 297° |
| 2026-04-28 13:57 | 52.47655 | 4.78956 | 36270 ft | 485 kts | 297° |
| 2026-04-28 13:58 | 52.50465 | 4.68824 | 36269 ft | 486 kts | 297° |
| 2026-04-28 13:58 | 52.53247 | 4.58756 | 36270 ft | 487 kts | 297° |
| 2026-04-28 13:59 | 52.56041 | 4.48598 | 36277 ft | 487 kts | 297° |
| 2026-04-28 13:59 | 52.58814 | 4.38471 | 36289 ft | 488 kts | 297° |
| 2026-04-28 14:00 | 52.61606 | 4.28231 | 36295 ft | 489 kts | 297° |
| 2026-04-28 14:00 | 52.62984 | 4.23194 | 35465 ft | 484 kts | 294° |
| 2026-04-28 14:00 | 52.64350 | 4.18207 | 35831 ft | 472 kts | 294° |
| 2026-04-28 14:01 | 52.65686 | 4.13273 | 35998 ft | 474 kts | 294° |
| 2026-04-28 14:01 | 52.67034 | 4.08274 | 35997 ft | 476 kts | 294° |
| 2026-04-28 14:01 | 52.69705 | 3.98334 | 36002 ft | 475 kts | 294° |
| 2026-04-28 14:02 | 52.72386 | 3.88325 | 36002 ft | 475 kts | 293° |
| 2026-04-28 14:02 | 52.75042 | 3.78368 | 35999 ft | 475 kts | 293° |
| 2026-04-28 14:03 | 52.77687 | 3.68408 | 35999 ft | 475 kts | 293° |
| 2026-04-28 14:03 | 52.80341 | 3.58374 | 36000 ft | 475 kts | 293° |
| 2026-04-28 14:04 | 52.82967 | 3.48399 | 36001 ft | 475 kts | 293° |
| 2026-04-28 14:04 | 52.85601 | 3.38345 | 35998 ft | 475 kts | 293° |
| 2026-04-28 14:05 | 52.88225 | 3.28288 | 35999 ft | 475 kts | 293° |
| 2026-04-28 14:05 | 52.90794 | 3.18259 | 36001 ft | 475 kts | 290° |
| 2026-04-28 14:06 | 52.92662 | 3.07752 | 35995 ft | 475 kts | 281° |
| 2026-04-28 14:06 | 52.94041 | 2.97036 | 35995 ft | 475 kts | 282° |
| 2026-04-28 14:07 | 52.95454 | 2.86392 | 35998 ft | 475 kts | 282° |
| 2026-04-28 14:07 | 52.96856 | 2.75672 | 36003 ft | 475 kts | 282° |
| 2026-04-28 14:08 | 52.98237 | 2.64981 | 36005 ft | 475 kts | 282° |
| 2026-04-28 14:08 | 52.99613 | 2.54242 | 35998 ft | 475 kts | 282° |
| 2026-04-28 14:09 | 53.00981 | 2.43476 | 36002 ft | 475 kts | 281° |
| 2026-04-28 14:09 | 53.02331 | 2.32773 | 36002 ft | 475 kts | 281° |
| 2026-04-28 14:10 | 53.03673 | 2.22056 | 36000 ft | 475 kts | 281° |
| 2026-04-28 14:10 | 53.05012 | 2.11281 | 36000 ft | 475 kts | 281° |
| 2026-04-28 14:11 | 53.06332 | 2.00556 | 36001 ft | 475 kts | 281° |